MMCM

Details ICAO MMCM (CTM)
Name CHETUMAL INTL
Region Mexico
Timezone America/Cancun (UTC-5.0)
Plans Departing 27
Arriving 21
Stats Elevation 39 ft / 12 m (AMSL)
Location 18.504666° -88.326847°
Runways 1
Magnetic Variation 0.680° W
Sunrise 2017-12-16 12:19:47 UTC / 2017-12-16 07:19:47 Local
Sunset 2017-12-16 23:21:06 UTC / 2017-12-16 18:21:06 Local
Advertisement - Login to hide

Runways

ID Width Length Bearing (true) Bearing (mag) Surface Threshold Offset Overrun Length
10 151 ft / 46 m 7,214 ft / 2,199 m 108.17° 108.85° Asphalt 0 ft / 0 m 0 ft / 0 m
28 151 ft / 46 m 7,214 ft / 2,199 m 288.18° 288.86° Asphalt 869 ft / 265 m 0 ft / 0 m

Map

Weather


0- 5 10 15 20 25 30 35+ Temperature / ° C

Clouds and Precipitation
Forecast for 2017-12-17 00:00 UTC. Updated 2 hours ago

Ground ~20,000 ft ~40,000 ft Winds

METAR

MMCM 162048Z 12010KT 7SM SCT020TCU 28/23 A2996 RMK SLP147 5//// 907 8/200

TAF

TAF MMCM 161720Z 1618/1718 21012KT 6SM HZ BKN015 BKN100 1619/1623 5SM RA FM170100 21008KT 6SM HZ BKN010 OVC070 PROB40 1702/1706 5SM -RA FM171000 21008KT 5SM HZ BKN010 OVC040 PROB40 1711/1715 3SM -RA BR

Frequencies

Tower 118.80 MHz TWR
Warning: Do not use this data for real-world aviation or navigation. No guarantee of current accuracy is given.